createdAt,value
2018-11-02T00:01:35.132Z,34.80
2018-11-02T00:04:03.760Z,36.43
2018-11-02T00:06:33.732Z,35.43
2018-11-02T00:09:02.388Z,32.17
2018-11-02T00:11:31.032Z,34.40
2018-11-02T00:13:59.647Z,39.27
2018-11-02T00:16:28.336Z,34.43
2018-11-02T00:18:57.014Z,34.97
2018-11-02T00:21:25.666Z,35.13
2018-11-02T00:23:54.360Z,36.37
2018-11-02T00:26:23.012Z,37.00
2018-11-02T00:28:51.717Z,38.47
2018-11-02T00:31:20.358Z,35.20
2018-11-02T00:33:49.030Z,31.27
2018-11-02T00:36:17.726Z,34.50
2018-11-02T00:38:46.364Z,34.23
2018-11-02T00:41:15.168Z,35.30
2018-11-02T00:43:43.803Z,35.17
2018-11-02T00:46:12.568Z,34.83
2018-11-02T00:48:41.725Z,35.60
2018-11-02T00:51:10.335Z,34.10
2018-11-02T00:53:38.973Z,34.30
2018-11-02T00:56:07.643Z,33.07
2018-11-02T00:58:36.968Z,31.83
2018-11-02T01:01:05.633Z,33.10
2018-11-02T01:03:34.804Z,32.53
2018-11-02T01:06:03.851Z,37.50
2018-11-02T01:08:32.772Z,34.63
2018-11-02T01:11:01.439Z,32.83
2018-11-02T01:13:30.057Z,37.23
2018-11-02T01:15:58.721Z,34.10
2018-11-02T01:18:27.342Z,35.07
2018-11-02T01:20:55.941Z,36.60
2018-11-02T01:23:24.556Z,36.77
2018-11-02T01:25:53.209Z,39.60
2018-11-02T01:28:22.053Z,34.10
2018-11-02T01:30:50.738Z,35.40
2018-11-02T01:33:23.672Z,35.30
2018-11-02T01:35:52.313Z,36.77
2018-11-02T01:38:21.119Z,37.40
2018-11-02T01:40:49.996Z,37.20
2018-11-02T01:43:18.660Z,38.60
2018-11-02T01:45:47.340Z,42.47
2018-11-02T01:48:15.976Z,41.60
2018-11-02T01:50:44.581Z,42.63
2018-11-02T01:53:13.439Z,44.70
2018-11-02T01:55:42.064Z,48.90
2018-11-02T01:58:10.774Z,48.90
2018-11-02T02:00:39.468Z,53.40
2018-11-02T02:03:08.121Z,63.03
2018-11-02T02:05:36.754Z,56.70
2018-11-02T02:08:05.695Z,54.70
2018-11-02T02:10:34.333Z,61.17
2018-11-02T02:13:03.270Z,56.70
2018-11-02T02:15:31.892Z,60.67
2018-11-02T02:18:00.705Z,57.97
2018-11-02T02:20:29.596Z,57.43
2018-11-02T02:22:58.513Z,64.87
2018-11-02T02:25:27.254Z,67.77
2018-11-02T02:27:55.916Z,61.70
2018-11-02T02:30:24.557Z,62.67
2018-11-02T02:32:53.238Z,62.30
2018-11-02T02:35:21.888Z,67.33
2018-11-02T02:37:50.549Z,65.27
2018-11-02T02:40:19.149Z,64.23
2018-11-02T02:42:47.798Z,73.63
2018-11-02T02:45:16.403Z,64.80
2018-11-02T02:47:45.102Z,74.00
2018-11-02T02:50:14.476Z,73.93
2018-11-02T02:52:43.912Z,83.10
2018-11-02T02:55:12.563Z,78.77
2018-11-02T02:57:41.200Z,86.53
2018-11-02T03:00:11.843Z,84.27
2018-11-02T03:02:40.612Z,70.93
2018-11-02T03:05:09.803Z,82.83
2018-11-02T03:07:38.759Z,74.87
2018-11-02T03:10:07.755Z,89.03
2018-11-02T03:12:36.663Z,82.60
2018-11-02T03:15:05.762Z,84.23
2018-11-02T03:17:34.663Z,82.40
2018-11-02T03:20:04.257Z,88.80
2018-11-02T03:22:32.955Z,84.43
2018-11-02T03:25:02.755Z,85.97
2018-11-02T03:27:31.524Z,89.30
2018-11-02T03:30:00.234Z,87.50
2018-11-02T03:32:28.913Z,87.17
2018-11-02T03:34:57.601Z,87.33
2018-11-02T03:37:26.237Z,89.20
2018-11-02T03:39:54.852Z,81.40
2018-11-02T03:42:23.512Z,83.33
2018-11-02T03:44:52.147Z,80.00
2018-11-02T03:47:20.800Z,76.80
2018-11-02T03:49:49.420Z,79.47
2018-11-02T03:52:18.020Z,77.50
2018-11-02T03:54:46.668Z,73.20
2018-11-02T03:57:15.326Z,75.47
2018-11-02T03:59:43.980Z,73.53
2018-11-02T04:02:12.610Z,68.83
2018-11-02T04:04:41.277Z,69.93
2018-11-02T04:07:09.949Z,76.70
2018-11-02T04:09:38.583Z,73.77
2018-11-02T04:12:07.544Z,74.90
2018-11-02T04:14:36.177Z,66.50
2018-11-02T04:17:05.122Z,64.70
2018-11-02T04:19:33.759Z,70.30
2018-11-02T04:22:02.421Z,78.00
2018-11-02T04:24:31.055Z,69.93
2018-11-02T04:26:59.780Z,60.80
2018-11-02T04:29:28.435Z,60.90
2018-11-02T04:31:57.031Z,65.17
2018-11-02T04:34:25.713Z,63.43
2018-11-02T04:36:54.459Z,70.57
2018-11-02T04:39:23.080Z,60.10
2018-11-02T04:41:51.725Z,60.97
2018-11-02T04:44:20.341Z,57.80
2018-11-02T04:46:48.952Z,62.10
2018-11-02T04:49:17.596Z,53.77
2018-11-02T04:51:46.254Z,60.10
2018-11-02T04:54:14.924Z,51.40
2018-11-02T04:56:43.621Z,47.80
2018-11-02T04:59:12.299Z,48.67
2018-11-02T05:01:40.908Z,48.07
2018-11-02T05:04:09.561Z,46.33
2018-11-02T05:06:38.223Z,47.90
2018-11-02T05:09:08.031Z,46.97
2018-11-02T05:11:36.947Z,42.83
2018-11-02T05:14:05.891Z,46.47
2018-11-02T05:16:34.672Z,38.23
2018-11-02T05:19:03.292Z,39.80
2018-11-02T05:21:31.962Z,41.63
2018-11-02T05:24:00.600Z,39.47
2018-11-02T05:26:29.288Z,36.70
2018-11-02T05:28:57.965Z,41.30
2018-11-02T05:31:26.629Z,32.13
2018-11-02T05:33:55.290Z,33.40
2018-11-02T05:36:23.921Z,34.67
2018-11-02T05:38:52.643Z,32.00
2018-11-02T05:41:21.239Z,36.63
2018-11-02T05:43:49.898Z,30.97
2018-11-02T05:46:18.530Z,31.87
2018-11-02T05:48:47.199Z,32.00
2018-11-02T05:51:15.839Z,31.27
2018-11-02T05:53:44.469Z,33.97
2018-11-02T05:56:13.107Z,31.33
2018-11-02T05:58:41.757Z,32.80
2018-11-02T06:01:10.431Z,29.60
2018-11-02T06:03:39.072Z,34.30
2018-11-02T06:06:07.762Z,32.63
2018-11-02T06:08:36.419Z,32.43
2018-11-02T06:11:05.768Z,31.20
2018-11-02T06:13:34.903Z,31.00
2018-11-02T06:16:03.530Z,31.60
2018-11-02T06:18:32.237Z,29.33
2018-11-02T06:21:00.941Z,28.80
2018-11-02T06:23:29.597Z,27.50
2018-11-02T06:25:58.257Z,28.83
2018-11-02T06:28:26.926Z,31.10
2018-11-02T06:30:55.542Z,28.00
2018-11-02T06:33:24.204Z,25.47
2018-11-02T06:35:52.869Z,26.27
2018-11-02T06:38:21.592Z,25.50
2018-11-02T06:40:50.282Z,25.57
2018-11-02T06:43:18.996Z,29.07
2018-11-02T06:45:47.632Z,26.63
2018-11-02T06:48:16.316Z,25.10
2018-11-02T06:50:44.988Z,26.07
2018-11-02T06:53:13.614Z,25.20
2018-11-02T06:55:42.257Z,24.90
2018-11-02T06:58:10.909Z,25.20
2018-11-02T07:00:39.572Z,24.33
2018-11-02T07:03:08.177Z,28.97
2018-11-02T07:05:36.843Z,23.23
2018-11-02T07:08:06.243Z,25.80
2018-11-02T07:10:40.857Z,25.80
2018-11-02T07:13:09.572Z,26.03
2018-11-02T07:15:38.261Z,21.57
2018-11-02T07:18:06.882Z,23.67
2018-11-02T07:20:35.492Z,24.10
2018-11-02T07:23:04.502Z,23.13
2018-11-02T07:25:33.177Z,25.60
2018-11-02T07:28:01.801Z,27.03
2018-11-02T07:30:30.484Z,22.77
2018-11-02T07:32:59.128Z,24.20
2018-11-02T07:35:27.949Z,22.50
2018-11-02T07:37:56.544Z,21.90
2018-11-02T07:40:25.511Z,24.40
2018-11-02T07:42:54.161Z,23.10
2018-11-02T07:45:22.848Z,22.17
2018-11-02T07:47:51.612Z,22.10
2018-11-02T07:50:20.206Z,24.77
2018-11-02T07:52:49.749Z,20.83
2018-11-02T07:55:18.524Z,22.27
2018-11-02T07:57:47.165Z,23.77
2018-11-02T08:00:17.080Z,21.77
2018-11-02T08:02:47.439Z,22.77
2018-11-02T08:05:16.676Z,21.07
2018-11-02T08:07:45.566Z,21.17
2018-11-02T08:10:14.417Z,20.83
2018-11-02T08:12:43.088Z,22.77
2018-11-02T08:15:12.745Z,20.27
2018-11-02T08:17:42.023Z,20.07
2018-11-02T08:20:11.949Z,20.20
2018-11-02T08:22:40.721Z,19.93
2018-11-02T08:25:10.373Z,18.40
2018-11-02T08:27:39.325Z,17.87
2018-11-02T08:30:08.728Z,19.70
2018-11-02T08:32:37.520Z,18.17
2018-11-02T08:35:08.105Z,19.47
2018-11-02T08:37:37.240Z,16.93
2018-11-02T08:40:06.775Z,18.80
2018-11-02T08:42:35.417Z,17.23
2018-11-02T08:45:04.060Z,17.50
2018-11-02T08:47:32.718Z,18.07
2018-11-02T08:50:01.340Z,16.93
2018-11-02T08:52:29.993Z,16.60
2018-11-02T08:54:58.604Z,16.47
2018-11-02T08:57:27.415Z,16.70
2018-11-02T08:59:56.053Z,16.50
2018-11-02T09:02:24.686Z,15.80
2018-11-02T09:04:53.348Z,15.27
2018-11-02T09:07:21.930Z,14.27
2018-11-02T09:09:50.576Z,13.83
2018-11-02T09:12:19.347Z,15.00
2018-11-02T09:14:47.885Z,12.67
2018-11-02T09:17:16.581Z,12.13
2018-11-02T09:19:45.205Z,13.60
2018-11-02T09:22:14.117Z,12.90
2018-11-02T09:24:42.749Z,12.90
2018-11-02T09:27:11.400Z,12.00
2018-11-02T09:29:40.053Z,16.40
2018-11-02T09:32:08.705Z,12.17
2018-11-02T09:34:37.360Z,12.10
2018-11-02T09:37:05.989Z,12.47
2018-11-02T09:39:34.606Z,10.67
2018-11-02T09:42:03.250Z,11.23
2018-11-02T09:44:31.969Z,11.60
2018-11-02T09:47:00.609Z,11.90
2018-11-02T09:49:29.252Z,11.43
2018-11-02T09:51:57.950Z,12.20
2018-11-02T09:54:26.485Z,12.60
2018-11-02T09:56:55.148Z,11.93
2018-11-02T09:59:23.828Z,12.87
2018-11-02T10:01:52.542Z,11.77
2018-11-02T10:04:21.204Z,12.50
2018-11-02T10:06:49.852Z,11.10
2018-11-02T10:09:18.540Z,12.10
2018-11-02T10:11:47.440Z,11.70
2018-11-02T10:14:16.212Z,12.13
2018-11-02T10:16:44.956Z,11.63
2018-11-02T10:19:14.034Z,11.73
2018-11-02T10:21:42.670Z,11.73
2018-11-02T10:24:11.431Z,11.80
2018-11-02T10:26:40.126Z,11.70
2018-11-02T10:29:08.824Z,11.67
2018-11-02T10:31:37.451Z,12.43
2018-11-02T10:34:06.084Z,14.17
2018-11-02T10:36:35.369Z,12.60
2018-11-02T10:39:05.144Z,12.30
2018-11-02T10:41:50.816Z,12.73
2018-11-02T10:44:25.971Z,11.77
2018-11-02T10:46:54.504Z,11.07
2018-11-02T10:49:23.258Z,11.07
2018-11-02T10:51:51.792Z,10.20
2018-11-02T10:54:20.533Z,12.00
2018-11-02T10:56:49.250Z,10.83
2018-11-02T10:59:17.910Z,10.47
2018-11-02T11:01:51.383Z,10.40
2018-11-02T11:04:20.476Z,9.73
2018-11-02T11:06:49.189Z,12.47
2018-11-02T11:09:17.835Z,10.40
2018-11-02T11:11:46.635Z,11.00
2018-11-02T11:14:15.141Z,11.07
2018-11-02T11:16:43.908Z,11.40
2018-11-02T11:19:12.575Z,10.67
2018-11-02T11:21:42.150Z,9.63
2018-11-02T11:24:10.792Z,11.40
2018-11-02T11:26:39.671Z,10.20
2018-11-02T11:29:08.505Z,11.33
2018-11-02T11:31:37.409Z,11.03
2018-11-02T11:34:06.876Z,15.40
2018-11-02T11:36:35.502Z,11.40
2018-11-02T11:39:07.500Z,11.90
2018-11-02T11:41:36.151Z,14.17
2018-11-02T11:44:04.801Z,13.20
2018-11-02T11:46:33.849Z,9.77
2018-11-02T11:49:02.717Z,9.80
2018-11-02T11:51:31.153Z,11.47
2018-11-02T11:53:59.784Z,9.00
2018-11-02T11:56:28.450Z,10.23
2018-11-02T11:58:57.127Z,7.77
2018-11-02T12:01:25.778Z,8.10
2018-11-02T12:03:54.395Z,8.10
2018-11-02T12:06:23.037Z,8.03
2018-11-02T12:08:51.668Z,7.90
2018-11-02T12:11:20.331Z,7.40
2018-11-02T12:13:48.969Z,6.53
2018-11-02T12:16:17.659Z,7.27
2018-11-02T12:18:46.412Z,7.90
2018-11-02T12:21:15.115Z,6.03
2018-11-02T12:23:43.739Z,7.17
2018-11-02T12:26:12.425Z,6.30
2018-11-02T12:28:41.194Z,9.80
2018-11-02T12:31:09.755Z,6.33
2018-11-02T12:33:38.376Z,6.30
2018-11-02T12:36:07.048Z,5.03
2018-11-02T12:38:35.712Z,7.40
2018-11-02T12:41:04.360Z,5.43
2018-11-02T12:43:33.062Z,6.70
2018-11-02T12:46:01.664Z,6.80
2018-11-02T12:48:30.403Z,6.83
2018-11-02T12:50:59.004Z,6.50
2018-11-02T12:53:27.667Z,6.37
2018-11-02T12:55:56.279Z,6.07
2018-11-02T12:58:24.897Z,6.23
2018-11-02T13:00:53.880Z,5.77
2018-11-02T13:03:22.509Z,5.30
2018-11-02T13:05:51.166Z,5.73
2018-11-02T13:08:19.844Z,5.90
2018-11-02T13:10:48.485Z,5.30
2018-11-02T13:13:17.192Z,3.90
2018-11-02T13:15:45.865Z,6.33
2018-11-02T13:18:16.182Z,5.40
2018-11-02T13:20:44.677Z,4.53
2018-11-02T13:23:13.305Z,4.20
2018-11-02T13:25:42.169Z,4.37
2018-11-02T13:28:10.780Z,5.97
2018-11-02T13:30:39.474Z,3.50
2018-11-02T13:33:08.068Z,4.67
2018-11-02T13:35:36.741Z,3.93
2018-11-02T13:38:05.367Z,3.40
2018-11-02T13:40:33.972Z,4.27
2018-11-02T13:43:02.747Z,3.33
2018-11-02T13:45:31.369Z,5.27
2018-11-02T13:48:00.038Z,4.60
2018-11-02T13:50:28.737Z,5.60
2018-11-02T13:52:57.636Z,2.60
2018-11-02T13:55:26.279Z,3.47
2018-11-02T13:57:54.980Z,4.20
2018-11-02T14:00:25.736Z,3.20
2018-11-02T14:02:54.568Z,4.57
2018-11-02T14:05:23.220Z,6.07
2018-11-02T14:07:51.903Z,4.33
2018-11-02T14:10:20.547Z,2.23
2018-11-02T14:12:49.168Z,3.37
2018-11-02T14:15:18.119Z,3.87
2018-11-02T14:17:46.798Z,2.30
2018-11-02T14:20:15.759Z,5.87
2018-11-02T14:22:44.393Z,4.60
2018-11-02T14:25:14.301Z,2.73
2018-11-02T14:27:43.105Z,3.83
2018-11-02T14:30:13.338Z,2.27
2018-11-02T14:32:42.002Z,4.67
2018-11-02T14:35:10.650Z,2.30
2018-11-02T14:37:39.460Z,3.67
2018-11-02T14:40:08.859Z,2.80
2018-11-02T14:42:38.177Z,2.80
2018-11-02T14:45:08.491Z,2.50
2018-11-02T14:47:37.216Z,5.50
2018-11-02T14:50:07.200Z,5.33
2018-11-02T14:52:35.876Z,4.00
2018-11-02T14:55:04.790Z,2.37
2018-11-02T14:57:33.854Z,2.90
2018-11-02T15:00:02.571Z,3.43
2018-11-02T15:02:31.344Z,2.27
2018-11-02T15:04:59.989Z,2.43
2018-11-02T15:07:29.640Z,3.23
2018-11-02T15:09:58.316Z,2.90
2018-11-02T15:12:27.009Z,4.73
2018-11-02T15:14:55.742Z,2.10
2018-11-02T15:17:24.357Z,4.00
2018-11-02T15:19:53.067Z,3.70
2018-11-02T15:22:21.703Z,6.00
2018-11-02T15:24:50.318Z,3.63
2018-11-02T15:27:18.986Z,4.53
2018-11-02T15:29:47.643Z,2.67
2018-11-02T15:32:16.341Z,3.90
2018-11-02T15:34:45.021Z,2.73
2018-11-02T15:37:13.659Z,3.60
2018-11-02T15:39:42.299Z,4.97
2018-11-02T15:42:11.025Z,3.90
2018-11-02T15:44:39.750Z,4.03
2018-11-02T15:47:08.357Z,6.37
2018-11-02T15:49:38.135Z,3.60
2018-11-02T15:52:06.908Z,5.03
2018-11-02T15:54:35.623Z,2.77
2018-11-02T15:57:04.807Z,2.30
2018-11-02T15:59:33.449Z,3.47
2018-11-02T16:02:02.097Z,2.43
2018-11-02T16:04:30.873Z,3.70
2018-11-02T16:06:59.557Z,3.53
2018-11-02T16:09:28.182Z,4.43
2018-11-02T16:11:56.864Z,3.60
2018-11-02T16:14:25.726Z,3.93
2018-11-02T16:16:54.369Z,6.23
2018-11-02T16:19:23.048Z,3.50
2018-11-02T16:21:51.718Z,4.50
2018-11-02T16:24:20.429Z,5.37
2018-11-02T16:26:49.081Z,4.43
2018-11-02T16:29:17.811Z,4.37
2018-11-02T16:31:46.472Z,4.07
2018-11-02T16:34:15.151Z,5.10
2018-11-02T16:36:43.816Z,5.80
2018-11-02T16:39:13.025Z,4.50
2018-11-02T16:41:41.907Z,10.07
2018-11-02T16:44:10.746Z,12.33
2018-11-02T16:46:39.478Z,6.00
2018-11-02T16:49:08.153Z,6.37
2018-11-02T16:51:36.797Z,5.07
2018-11-02T16:54:05.666Z,4.57
2018-11-02T16:56:34.446Z,6.17
2018-11-02T16:59:03.075Z,15.87
2018-11-02T17:01:31.715Z,8.30
2018-11-02T17:04:00.485Z,5.83
2018-11-02T17:06:29.150Z,5.50
2018-11-02T17:08:57.837Z,5.83
2018-11-02T17:11:26.686Z,5.60
2018-11-02T17:13:55.390Z,6.77
2018-11-02T17:16:24.022Z,7.67
2018-11-02T17:18:52.746Z,6.17
2018-11-02T17:21:21.372Z,5.10
2018-11-02T17:23:49.980Z,5.43
2018-11-02T17:26:18.649Z,5.83
2018-11-02T17:28:47.289Z,6.40
2018-11-02T17:31:16.645Z,5.80
2018-11-02T17:33:46.113Z,6.90
2018-11-02T17:36:14.775Z,17.03
2018-11-02T17:38:43.420Z,10.53
2018-11-02T17:41:12.198Z,8.30
2018-11-02T17:43:40.969Z,4.80
2018-11-02T17:46:12.345Z,9.50
2018-11-02T17:48:41.400Z,9.13
2018-11-02T17:51:10.081Z,5.27
2018-11-02T17:53:38.680Z,5.07
2018-11-02T17:56:07.321Z,8.03
2018-11-02T17:58:35.936Z,6.97
2018-11-02T18:01:04.686Z,6.03
2018-11-02T18:03:33.776Z,4.70
2018-11-02T18:06:02.465Z,10.20
2018-11-02T18:08:31.063Z,7.03
2018-11-02T18:11:00.139Z,7.50
2018-11-02T18:13:28.751Z,8.40
2018-11-02T18:15:57.330Z,11.13
2018-11-02T18:18:25.996Z,8.57
2018-11-02T18:20:54.645Z,5.27
2018-11-02T18:23:23.283Z,7.17
2018-11-02T18:25:51.999Z,9.00
2018-11-02T18:28:20.625Z,4.73
2018-11-02T18:30:49.277Z,11.00
2018-11-02T18:33:17.930Z,7.00
2018-11-02T18:35:46.577Z,8.43
2018-11-02T18:38:15.212Z,4.40
2018-11-02T18:40:43.852Z,5.43
2018-11-02T18:43:12.701Z,4.50
2018-11-02T18:45:41.332Z,6.00
2018-11-02T18:48:10.959Z,7.20
2018-11-02T18:50:40.766Z,5.00
2018-11-02T18:53:09.426Z,9.73
2018-11-02T18:55:38.064Z,7.77
2018-11-02T18:58:06.823Z,7.07
2018-11-02T19:00:35.352Z,7.10
2018-11-02T19:03:04.040Z,7.30
2018-11-02T19:05:32.708Z,5.53
2018-11-02T19:08:01.416Z,6.30
2018-11-02T19:10:29.998Z,8.40
2018-11-02T19:12:58.596Z,4.53
2018-11-02T19:15:27.232Z,6.73
2018-11-02T19:17:55.854Z,11.00
2018-11-02T19:20:24.556Z,5.10
2018-11-02T19:22:53.131Z,5.83
2018-11-02T19:25:21.824Z,10.63
2018-11-02T19:27:50.503Z,9.00
2018-11-02T19:30:19.062Z,8.70
2018-11-02T19:32:47.685Z,7.00
2018-11-02T19:35:16.513Z,8.70
2018-11-02T19:37:45.053Z,7.03
2018-11-02T19:40:14.924Z,11.43
2018-11-02T19:42:43.876Z,8.40
2018-11-02T19:45:13.004Z,7.30
2018-11-02T19:47:46.965Z,8.20
2018-11-02T19:50:17.082Z,7.13
2018-11-02T19:52:45.825Z,10.63
2018-11-02T19:55:14.666Z,9.33
2018-11-02T19:57:44.428Z,12.30
2018-11-02T20:00:14.430Z,11.53
2018-11-02T20:02:43.373Z,7.53
2018-11-02T20:05:14.294Z,6.97
2018-11-02T20:07:43.156Z,6.30
2018-11-02T20:10:12.960Z,6.07
2018-11-02T20:12:42.264Z,15.23
2018-11-02T20:15:11.973Z,8.73
2018-11-02T20:17:41.262Z,9.00
2018-11-02T20:20:11.439Z,15.10
2018-11-02T20:22:40.359Z,9.77
2018-11-02T20:25:10.951Z,9.83
2018-11-02T20:27:39.913Z,7.47
2018-11-02T20:30:10.671Z,8.03
2018-11-02T20:32:39.519Z,6.70
2018-11-02T20:35:08.824Z,7.33
2018-11-02T20:37:38.533Z,5.90
2018-11-02T20:40:09.261Z,5.40
2018-11-02T20:42:38.004Z,8.50
2018-11-02T20:45:06.984Z,7.83
2018-11-02T20:47:41.233Z,9.17
2018-11-02T20:50:10.938Z,5.00
2018-11-02T20:52:40.181Z,7.00
2018-11-02T20:55:10.012Z,10.43
2018-11-02T20:57:39.389Z,6.90
2018-11-02T21:00:10.393Z,9.70
2018-11-02T21:02:39.375Z,6.10
2018-11-02T21:05:09.911Z,8.90
2018-11-02T21:07:38.672Z,8.00
2018-11-02T21:10:09.015Z,7.73
2018-11-02T21:12:37.722Z,8.10
2018-11-02T21:15:09.490Z,8.20
2018-11-02T21:17:37.997Z,11.50
2018-11-02T21:20:09.003Z,7.77
2018-11-02T21:22:37.737Z,7.80
2018-11-02T21:25:07.237Z,7.93
2018-11-02T21:27:36.044Z,10.50
2018-11-02T21:30:07.292Z,11.03
2018-11-02T21:32:36.412Z,12.30
2018-11-02T21:35:05.492Z,8.47
2018-11-02T21:37:34.235Z,5.90
2018-11-02T21:40:02.865Z,11.53
2018-11-02T21:42:31.492Z,8.73
2018-11-02T21:45:00.116Z,9.40
2018-11-02T21:47:28.706Z,9.93
2018-11-02T21:49:57.433Z,8.87
2018-11-02T21:52:26.143Z,9.97
2018-11-02T21:54:54.903Z,8.00
2018-11-02T21:57:23.521Z,9.50
2018-11-02T21:59:52.459Z,7.47
2018-11-02T22:02:21.084Z,10.73
2018-11-02T22:04:49.692Z,6.90
2018-11-02T22:07:18.827Z,6.30
2018-11-02T22:09:47.607Z,13.60
2018-11-02T22:12:16.243Z,7.90
2018-11-02T22:14:44.863Z,6.90
2018-11-02T22:17:13.464Z,7.60
2018-11-02T22:19:42.170Z,9.37
2018-11-02T22:22:10.848Z,8.07
2018-11-02T22:24:39.472Z,11.00
2018-11-02T22:27:08.148Z,9.77
2018-11-02T22:29:36.743Z,14.40
2018-11-02T22:32:05.428Z,8.50
2018-11-02T22:34:34.977Z,8.80
2018-11-02T22:37:03.590Z,11.27
2018-11-02T22:39:32.212Z,8.70
2018-11-02T22:42:00.784Z,7.23
2018-11-02T22:44:29.380Z,7.43
2018-11-02T22:46:58.297Z,11.27
2018-11-02T22:49:26.932Z,10.23
2018-11-02T22:51:55.700Z,9.70
2018-11-02T22:54:24.504Z,9.50
2018-11-02T22:56:53.112Z,9.47
2018-11-02T22:59:21.751Z,9.47
2018-11-02T23:01:50.387Z,7.53
2018-11-02T23:04:19.064Z,10.73
2018-11-02T23:06:47.665Z,6.87
2018-11-02T23:09:16.293Z,9.83
2018-11-02T23:11:44.896Z,9.03
2018-11-02T23:14:13.545Z,7.63
2018-11-02T23:16:42.129Z,8.30
2018-11-02T23:19:10.826Z,7.47
2018-11-02T23:21:39.393Z,9.30
2018-11-02T23:24:08.005Z,12.17
2018-11-02T23:26:37.953Z,10.67
2018-11-02T23:29:07.256Z,7.10
2018-11-02T23:31:36.119Z,10.43
2018-11-02T23:34:05.055Z,12.07
2018-11-02T23:36:33.701Z,6.93
2018-11-02T23:39:02.316Z,8.87
2018-11-02T23:41:30.948Z,11.03
2018-11-02T23:43:59.633Z,7.60
2018-11-02T23:46:28.227Z,9.00
2018-11-02T23:48:56.875Z,9.33
2018-11-02T23:51:25.598Z,6.37
2018-11-02T23:53:54.177Z,7.80
2018-11-02T23:56:22.805Z,8.03
2018-11-02T23:58:51.468Z,6.67
